createdAt,value
2023-02-16T00:01:03.333Z,50.67
2023-02-16T00:06:14.322Z,48.43
2023-02-16T00:11:38.767Z,50.27
2023-02-16T00:16:44.319Z,49.77
2023-02-16T00:21:49.557Z,50.67
2023-02-16T00:26:58.055Z,50.17
2023-02-16T00:32:05.887Z,49.27
2023-02-16T00:37:15.517Z,44.07
2023-02-16T00:42:25.458Z,52.30
2023-02-16T00:47:35.281Z,46.67
2023-02-16T00:52:43.205Z,48.23
2023-02-16T00:57:53.362Z,53.77
2023-02-16T01:03:03.624Z,55.73
2023-02-16T01:08:26.382Z,50.80
2023-02-16T01:13:35.612Z,52.60
2023-02-16T01:18:41.304Z,50.33
2023-02-16T01:23:46.377Z,53.93
2023-02-16T01:28:54.373Z,51.03
2023-02-16T01:33:59.519Z,54.83
2023-02-16T01:39:07.305Z,47.80
2023-02-16T01:44:19.493Z,50.17
2023-02-16T01:49:24.945Z,50.70
2023-02-16T01:54:38.577Z,50.50
2023-02-16T02:00:09.989Z,50.23
2023-02-16T02:05:39.708Z,49.03
2023-02-16T02:10:53.292Z,50.60
2023-02-16T02:16:02.881Z,47.90
2023-02-16T02:21:43.966Z,48.63
2023-02-16T02:27:10.701Z,43.10
2023-02-16T02:32:28.131Z,46.17
2023-02-16T02:37:47.049Z,48.67
2023-02-16T02:43:03.979Z,43.00
2023-02-16T02:48:09.514Z,43.40
2023-02-16T02:53:18.878Z,46.90
2023-02-16T02:58:41.185Z,40.07
2023-02-16T03:03:50.582Z,43.57
2023-02-16T03:09:00.825Z,39.73
2023-02-16T03:14:13.546Z,40.80
2023-02-16T03:19:33.708Z,38.40
2023-02-16T03:24:51.244Z,35.47
2023-02-16T03:30:00.563Z,37.60
2023-02-16T03:35:05.727Z,38.00
2023-02-16T03:40:26.654Z,34.70
2023-02-16T03:45:35.647Z,38.50
2023-02-16T03:50:40.848Z,34.67
2023-02-16T03:55:48.491Z,30.23
2023-02-16T04:00:56.101Z,39.37
2023-02-16T04:06:01.009Z,39.50
2023-02-16T04:11:27.273Z,39.43
2023-02-16T04:16:35.127Z,34.83
2023-02-16T04:21:40.435Z,33.90
2023-02-16T04:26:46.007Z,37.30
2023-02-16T04:31:53.804Z,33.67
2023-02-16T04:36:59.017Z,38.00
2023-02-16T04:42:04.272Z,34.93
2023-02-16T04:47:13.460Z,38.87
2023-02-16T04:52:18.515Z,36.03
2023-02-16T04:57:24.391Z,33.50
2023-02-16T05:02:32.139Z,35.77
2023-02-16T05:07:37.096Z,35.07
2023-02-16T05:12:54.481Z,33.67
2023-02-16T05:18:02.435Z,38.80
2023-02-16T05:23:07.401Z,35.47
2023-02-16T05:28:12.517Z,40.57
2023-02-16T05:33:20.253Z,39.53
2023-02-16T05:38:25.154Z,41.33
2023-02-16T05:43:32.585Z,40.97
2023-02-16T05:48:40.281Z,44.27
2023-02-16T05:53:45.565Z,44.53
2023-02-16T05:58:50.644Z,46.70
2023-02-16T06:03:58.366Z,40.87
2023-02-16T06:09:03.399Z,39.93
2023-02-16T06:14:11.305Z,39.83
2023-02-16T06:19:20.508Z,39.40
2023-02-16T06:24:28.458Z,37.83
2023-02-16T06:29:33.777Z,47.43
2023-02-16T06:34:41.685Z,41.80
2023-02-16T06:39:49.859Z,42.67
2023-02-16T06:45:05.568Z,46.07
2023-02-16T06:50:15.216Z,44.73
2023-02-16T06:55:20.201Z,43.43
2023-02-16T07:00:25.616Z,40.43
2023-02-16T07:05:35.067Z,46.90
2023-02-16T07:10:49.460Z,52.03
2023-02-16T07:15:55.381Z,51.10
2023-02-16T07:21:03.491Z,49.57
2023-02-16T07:26:08.730Z,48.03
2023-02-16T07:31:16.813Z,42.57
2023-02-16T07:36:25.362Z,48.63
2023-02-16T07:41:32.252Z,37.77
2023-02-16T07:46:45.263Z,41.73
2023-02-16T07:51:55.583Z,43.07
2023-02-16T07:57:06.364Z,43.47
2023-02-16T08:02:27.876Z,38.13
2023-02-16T08:07:35.631Z,39.03
2023-02-16T08:12:41.885Z,44.43
2023-02-16T08:17:47.115Z,41.17
2023-02-16T08:23:21.366Z,36.97
2023-02-16T08:28:55.129Z,41.20
2023-02-16T08:34:30.677Z,35.90
2023-02-16T08:39:44.759Z,28.87
2023-02-16T08:44:54.885Z,29.30
2023-02-16T08:49:59.968Z,30.10
2023-02-16T08:55:04.878Z,30.73
2023-02-16T09:00:27.640Z,32.30
2023-02-16T09:05:32.692Z,33.33
2023-02-16T09:10:46.458Z,35.37
2023-02-16T09:16:01.037Z,28.73
2023-02-16T09:21:15.346Z,27.03
2023-02-16T09:26:22.346Z,31.47
2023-02-16T09:31:32.765Z,28.83
2023-02-16T09:36:53.282Z,27.20
2023-02-16T09:42:24.642Z,25.43
2023-02-16T09:47:36.417Z,30.10
2023-02-16T09:52:46.327Z,29.20
2023-02-16T09:58:01.779Z,27.57
2023-02-16T10:03:37.038Z,29.37
2023-02-16T10:09:23.792Z,29.43
2023-02-16T10:14:50.583Z,27.00
2023-02-16T10:20:02.264Z,28.17
2023-02-16T10:25:13.626Z,26.40
2023-02-16T10:30:21.647Z,27.73
2023-02-16T10:35:39.988Z,28.37
2023-02-16T10:40:53.331Z,26.97
2023-02-16T10:46:02.051Z,27.37
2023-02-16T10:51:14.396Z,27.60
2023-02-16T10:56:42.110Z,30.63
2023-02-16T11:01:50.124Z,21.13
2023-02-16T11:07:27.807Z,28.33
2023-02-16T11:12:43.650Z,20.37
2023-02-16T11:17:54.583Z,21.40
2023-02-16T11:23:24.603Z,21.20
2023-02-16T11:28:36.249Z,22.87
2023-02-16T11:33:42.349Z,23.37
2023-02-16T11:39:00.150Z,20.47
2023-02-16T11:44:06.904Z,22.00
2023-02-16T11:49:35.462Z,22.60
2023-02-16T11:54:51.986Z,21.03
2023-02-16T11:59:59.654Z,23.33
2023-02-16T12:05:30.959Z,23.77
2023-02-16T12:10:48.213Z,24.80
2023-02-16T12:16:04.753Z,23.73
2023-02-16T12:21:22.921Z,24.70
2023-02-16T12:26:42.938Z,29.70
2023-02-16T12:32:02.166Z,24.87
2023-02-16T12:37:17.827Z,20.90
2023-02-16T12:42:48.761Z,21.47
2023-02-16T12:48:01.564Z,30.13
2023-02-16T12:53:12.063Z,22.07
2023-02-16T12:58:26.463Z,22.87
2023-02-16T13:03:38.498Z,24.37
2023-02-16T13:08:54.233Z,24.93
2023-02-16T13:14:09.383Z,27.87
2023-02-16T13:19:16.622Z,22.67
2023-02-16T13:24:32.042Z,26.13
2023-02-16T13:30:00.475Z,29.90
2023-02-16T13:35:40.067Z,26.73
2023-02-16T13:41:06.732Z,30.03
2023-02-16T13:46:27.932Z,23.23
2023-02-16T13:51:47.047Z,25.90
2023-02-16T13:56:54.045Z,24.53
2023-02-16T14:02:02.456Z,33.70
2023-02-16T14:07:36.018Z,29.70
2023-02-16T14:12:44.543Z,24.60
2023-02-16T14:17:52.190Z,25.43
2023-02-16T14:23:00.277Z,24.97
2023-02-16T14:28:10.075Z,25.83
2023-02-16T14:33:25.797Z,27.80
2023-02-16T14:38:37.076Z,27.27
2023-02-16T14:43:45.169Z,22.27
2023-02-16T14:49:15.946Z,21.33
2023-02-16T14:54:55.060Z,23.27
2023-02-16T15:00:04.943Z,27.63
2023-02-16T15:05:25.124Z,29.13
2023-02-16T15:10:32.315Z,29.53
2023-02-16T15:15:47.122Z,32.23
2023-02-16T15:20:58.543Z,29.23
2023-02-16T15:26:08.118Z,33.40
2023-02-16T15:31:23.993Z,36.20
2023-02-16T15:36:38.835Z,32.70
2023-02-16T15:41:51.413Z,30.77
2023-02-16T15:47:09.828Z,31.63
2023-02-16T15:52:21.994Z,36.93
2023-02-16T15:57:33.811Z,35.60
2023-02-16T16:02:43.838Z,36.53
2023-02-16T16:07:52.804Z,40.27
2023-02-16T16:13:01.608Z,36.53
2023-02-16T16:18:06.884Z,38.50
2023-02-16T16:23:30.012Z,37.40
2023-02-16T16:28:38.140Z,38.73
2023-02-16T16:34:00.242Z,41.10
2023-02-16T16:39:25.534Z,42.30
2023-02-16T16:44:37.399Z,43.87
2023-02-16T16:49:53.810Z,44.17
2023-02-16T16:55:01.416Z,43.77
2023-02-16T17:00:07.564Z,49.43
2023-02-16T17:05:13.230Z,46.17
2023-02-16T17:10:24.777Z,44.10
2023-02-16T17:15:40.830Z,54.47
2023-02-16T17:20:48.239Z,47.03
2023-02-16T17:25:56.314Z,95.27
2023-02-16T17:31:01.339Z,76.43
2023-02-16T17:36:08.415Z,83.17
2023-02-16T17:41:23.551Z,61.90
2023-02-16T17:46:31.693Z,52.80
2023-02-16T17:51:38.319Z,66.67
2023-02-16T17:56:51.454Z,43.60
2023-02-16T18:01:56.508Z,44.40
2023-02-16T18:07:01.770Z,45.37
2023-02-16T18:12:11.906Z,50.90
2023-02-16T18:17:17.128Z,52.00
2023-02-16T18:22:22.231Z,53.50
2023-02-16T18:27:32.446Z,42.53
2023-02-16T18:32:38.843Z,51.43
2023-02-16T18:37:45.946Z,51.40
2023-02-16T18:42:53.961Z,65.17
2023-02-16T18:47:58.953Z,56.13
2023-02-16T18:53:04.299Z,69.80
2023-02-16T18:58:16.683Z,59.47
2023-02-16T19:03:22.085Z,46.67
2023-02-16T19:08:27.171Z,59.80
2023-02-16T19:13:38.115Z,48.20
2023-02-16T19:18:43.745Z,48.83
2023-02-16T19:23:50.351Z,45.90
2023-02-16T19:28:58.857Z,53.63
2023-02-16T19:34:05.533Z,53.60
2023-02-16T19:39:13.154Z,60.77
2023-02-16T19:44:21.305Z,64.77
2023-02-16T19:49:26.810Z,62.73
2023-02-16T19:54:32.767Z,48.83
2023-02-16T19:59:40.923Z,50.70
2023-02-16T20:04:46.969Z,44.83
2023-02-16T20:09:52.605Z,46.30
2023-02-16T20:15:00.505Z,51.53
2023-02-16T20:20:05.647Z,40.50
2023-02-16T20:25:13.622Z,45.40
2023-02-16T20:30:25.365Z,46.83
2023-02-16T20:35:30.445Z,51.53
2023-02-16T20:40:35.716Z,53.37
2023-02-16T20:45:46.223Z,49.30
2023-02-16T20:50:57.421Z,47.80
2023-02-16T20:56:08.290Z,51.03
2023-02-16T21:01:19.982Z,56.57
2023-02-16T21:06:25.817Z,51.17
2023-02-16T21:11:31.300Z,58.97
2023-02-16T21:16:41.238Z,64.03
2023-02-16T21:21:46.318Z,39.87
2023-02-16T21:26:51.398Z,45.53
2023-02-16T21:31:59.260Z,32.17
2023-02-16T21:37:06.458Z,25.57
2023-02-16T21:42:11.534Z,27.97
2023-02-16T21:47:32.277Z,27.30
2023-02-16T21:52:39.954Z,25.67
2023-02-16T21:57:45.291Z,21.93
2023-02-16T22:02:53.732Z,25.47
2023-02-16T22:07:58.890Z,26.37
2023-02-16T22:13:04.266Z,22.97
2023-02-16T22:18:11.919Z,24.97
2023-02-16T22:23:16.852Z,28.87
2023-02-16T22:28:21.804Z,33.67
2023-02-16T22:33:29.354Z,20.27
2023-02-16T22:38:34.555Z,19.67
2023-02-16T22:43:40.314Z,20.00
2023-02-16T22:48:47.966Z,16.67
2023-02-16T22:53:53.157Z,19.23
2023-02-16T22:58:58.297Z,19.90
2023-02-16T23:04:06.132Z,17.27
2023-02-16T23:09:15.863Z,19.47
2023-02-16T23:14:22.227Z,17.93
2023-02-16T23:19:30.082Z,20.10
2023-02-16T23:24:35.139Z,22.37
2023-02-16T23:29:40.312Z,19.17
2023-02-16T23:34:47.997Z,22.47
2023-02-16T23:39:53.148Z,20.37
2023-02-16T23:44:58.144Z,18.73
2023-02-16T23:50:05.636Z,17.73
2023-02-16T23:55:11.393Z,20.23
